Ailine Elizabeth — WCX4766 — position and weather

sailwx.info

Track history (hours):
 
Tides and Currents Weather Stations Pressure Air Temp Water Temp Dewpoint Dewpoint Depression Visibility Wind Speed Wind Dir Waves Ship Positions

Ailine Elizabeth

Owner: MARINE EXPRESS INC, Pittsburg, CA. More information available from US FCC via Universal Licensing System and Coast Guard Vessel Documentation Center.

Last reported at 2017-Nov-23 18:59 UTC. Time now 2017-Nov-24 05:46 UTC.
Position N 37°48' W 122°18'.

Length 25 m; draft 2 m.

MMSI: 367179250.

Date/timePositionNaut miles runAvg speedWind from/ knotsBaromVisibWave heightAir tempDewpointWater temp
2017-Nov-23 18:59N 37°48' W 122°18'4 7.5
2017-Nov-23 18:30N 37°46' W 122°21'4 7.3
2017-Nov-23 18:00N 37°47' W 122°17'0 0.0
2017-Nov-23 17:19N 37°47' W 122°17'2 5.6
2017-Nov-23 17:01N 37°48' W 122°19'2 0.2
2017-Nov-23 09:20N 37°47' W 122°17'3 9.6
2017-Nov-23 09:00N 37°46' W 122°21'2 4.4
2017-Nov-23 08:30N 37°48' W 122°20'2 0.4
2017-Nov-23 02:54N 37°47' W 122°17'3 7.2
2017-Nov-23 02:30N 37°46' W 122°20'0 0.9
2017-Nov-23 02:00N 37°47' W 122°20'1 2.5
2017-Nov-23 01:30N 37°45' W 122°20'1 1.8
2017-Nov-23 01:01N 37°46' W 122°20'1 1.5
2017-Nov-23 00:31N 37°47' W 122°20'2 0.5
2017-Nov-22 20:01N 37°47' W 122°17'0 1.0
2017-Nov-22 20:00N 37°47' W 122°17'3 6.0
2017-Nov-22 19:31N 37°45' W 122°20'  
2017-Nov-19 19:05N 37°47' W 122°17'0 0.1
2017-Nov-19 19:01N 37°47' W 122°17'3 6.1
2017-Nov-19 18:31N 37°45' W 122°20'0 0.6
2017-Nov-19 18:01N 37°45' W 122°20'0 0.2
2017-Nov-19 17:31N 37°45' W 122°20'3 6.5
2017-Nov-19 17:00N 37°47' W 122°17'3 6.7
2017-Nov-19 16:31N 37°45' W 122°21'0 0.0
2017-Nov-19 16:00N 37°45' W 122°21'0 0.1
2017-Nov-19 15:31N 37°45' W 122°21'3 6.8
2017-Nov-19 15:00N 37°47' W 122°17'0 0.0
2017-Nov-19 09:20N 37°47' W 122°17'2 6.7
2017-Nov-19 09:01N 37°48' W 122°20'4 8.4
2017-Nov-19 08:30N 37°44' W 122°20'0 0.0
2017-Nov-19 08:00N 37°44' W 122°20'3 7.0
2017-Nov-19 07:30N 37°47' W 122°23'3 6.8
2017-Nov-19 07:00N 37°48' W 122°18'1 0.1
2017-Nov-18 23:56N 37°47' W 122°17'510.7
2017-Nov-18 23:30N 37°47' W 122°23'4 7.6
2017-Nov-18 23:00N 37°44' W 122°20'0 0.1
2017-Nov-18 22:31N 37°44' W 122°20'0 0.1
2017-Nov-18 22:00N 37°44' W 122°20'3 6.1
2017-Nov-18 21:31N 37°47' W 122°21'3 5.2
2017-Nov-18 21:00N 37°47' W 122°17'0 0.0
2017-Nov-18 20:30N 37°47' W 122°17'2 4.0
2017-Nov-18 20:01N 37°48' W 122°20'2 4.5
2017-Nov-18 19:30N 37°46' W 122°21'3 6.3
2017-Nov-18 19:00N 37°49' W 122°20'5 9.6
2017-Nov-18 18:30N 37°44' W 122°21'1 2.0
2017-Nov-18 18:00N 37°43' W 122°20'0 0.1
2017-Nov-18 17:31N 37°43' W 122°20'5 9.5
2017-Nov-18 17:00N 37°48' W 122°18'1 0.9
2017-Nov-18 16:09N 37°47' W 122°17'0 0.4
2017-Nov-18 16:00N 37°47' W 122°17'0 0.0
2017-Nov-17 22:02N 37°47' W 122°17'0 0.0
2017-Nov-17 22:00N 37°47' W 122°17'1 2.7
2017-Nov-17 21:31N 37°48' W 122°19'2 4.7
2017-Nov-17 21:01N 37°46' W 122°20'0 0.0
2017-Nov-17 20:31N 37°46' W 122°20'0 0.2
2017-Nov-17 20:00N 37°46' W 122°20'0 0.3
2017-Nov-17 19:30N 37°46' W 122°20'2 4.7
2017-Nov-17 19:00N 37°48' W 122°19'1 2.2
2017-Nov-17 18:30N 37°47' W 122°17'0 0.0
2017-Nov-17 18:00N 37°47' W 122°17'0 0.0
2017-Nov-17 16:59N 37°47' W 122°17'2 5.2
2017-Nov-17 16:30N 37°47' W 122°20'2 3.5
2017-Nov-17 16:00N 37°48' W 122°18'1 1.4
2017-Nov-17 15:30N 37°47' W 122°17'0 0.0
2017-Nov-16 14:40N 37°47' W 122°17'0 0.0
2017-Nov-16 14:30N 37°47' W 122°17'0 0.0
2017-Nov-16 07:28N 37°47' W 122°17'5 9.9
2017-Nov-16 07:01N 37°49' W 122°23'1 1.8
2017-Nov-16 06:30N 37°49' W 122°23'1 1.9
2017-Nov-16 06:00N 37°49' W 122°23'5 9.2
2017-Nov-16 05:30N 37°47' W 122°17'0 0.0
2017-Nov-16 05:01N 37°47' W 122°17'0 0.0
2017-Nov-16 01:25N 37°47' W 122°17'3 6.9
2017-Nov-16 01:00N 37°46' W 122°20'3 5.4
2017-Nov-16 00:30N 37°48' W 122°17'0 0.1
2017-Nov-15 22:30N 37°47' W 122°17'3 6.0
2017-Nov-15 22:01N 37°46' W 122°20'1 1.1
2017-Nov-15 21:30N 37°46' W 122°20'0 0.1
2017-Nov-15 21:01N 37°46' W 122°20'2 5.0
2017-Nov-15 20:31N 37°48' W 122°18'0 0.8
2017-Nov-15 20:00N 37°47' W 122°17'0 0.0
2017-Nov-15 19:31N 37°47' W 122°17'0 0.0
2017-Nov-15 02:02N 37°47' W 122°17'0 0.2
2017-Nov-15 02:00N 37°47' W 122°17'3 6.0
2017-Nov-15 01:30N 37°45' W 122°20'3 6.0
2017-Nov-15 01:01N 37°47' W 122°17'0 0.0
2017-Nov-14 22:33N 37°47' W 122°17'0 0.2
2017-Nov-14 22:31N 37°47' W 122°17'3 5.9
2017-Nov-14 22:00N 37°46' W 122°20'3 6.0
2017-Nov-14 21:30N 37°48' W 122°17'0 0.2
2017-Nov-14 20:58N 37°47' W 122°17'3 6.4
2017-Nov-14 20:31N 37°46' W 122°20'3 5.1
2017-Nov-14 20:00N 37°48' W 122°18'1 0.5
2017-Nov-14 18:56N 37°47' W 122°17'3 6.5
2017-Nov-14 18:31N 37°46' W 122°20'2 4.1
2017-Nov-14 18:00N 37°48' W 122°20'  
Track history (hours):
 
Tides and Currents Weather Stations Pressure Air Temp Water Temp Dewpoint Dewpoint Depression Visibility Wind Speed Wind Dir Waves Ship Positions

Ailine Elizabeth

Owner: MARINE EXPRESS INC, Pittsburg, CA. More information available from US FCC via Universal Licensing System and Coast Guard Vessel Documentation Center.

Last reported at 2017-Nov-23 18:59 UTC. Time now 2017-Nov-24 05:46 UTC.
Position N 37°48' W 122°18'.

Length 25 m; draft 2 m.

MMSI: 367179250.

Date/timePositionNaut miles runAvg speedWind from/ knotsBaromVisibWave heightAir tempDewpointWater temp
2017-Nov-23 18:59N 37°48' W 122°18'4 7.5
2017-Nov-23 18:30N 37°46' W 122°21'4 7.3
2017-Nov-23 18:00N 37°47' W 122°17'0 0.0
2017-Nov-23 17:19N 37°47' W 122°17'2 5.6
2017-Nov-23 17:01N 37°48' W 122°19'2 0.2
2017-Nov-23 09:20N 37°47' W 122°17'3 9.6
2017-Nov-23 09:00N 37°46' W 122°21'2 4.4
2017-Nov-23 08:30N 37°48' W 122°20'2 0.4
2017-Nov-23 02:54N 37°47' W 122°17'3 7.2
2017-Nov-23 02:30N 37°46' W 122°20'0 0.9
2017-Nov-23 02:00N 37°47' W 122°20'1 2.5
2017-Nov-23 01:30N 37°45' W 122°20'1 1.8
2017-Nov-23 01:01N 37°46' W 122°20'1 1.5
2017-Nov-23 00:31N 37°47' W 122°20'2 0.5
2017-Nov-22 20:01N 37°47' W 122°17'0 1.0
2017-Nov-22 20:00N 37°47' W 122°17'3 6.0
2017-Nov-22 19:31N 37°45' W 122°20'  
2017-Nov-19 19:05N 37°47' W 122°17'0 0.1
2017-Nov-19 19:01N 37°47' W 122°17'3 6.1
2017-Nov-19 18:31N 37°45' W 122°20'0 0.6
2017-Nov-19 18:01N 37°45' W 122°20'0 0.2
2017-Nov-19 17:31N 37°45' W 122°20'3 6.5
2017-Nov-19 17:00N 37°47' W 122°17'3 6.7
2017-Nov-19 16:31N 37°45' W 122°21'0 0.0
2017-Nov-19 16:00N 37°45' W 122°21'0 0.1
2017-Nov-19 15:31N 37°45' W 122°21'3 6.8
2017-Nov-19 15:00N 37°47' W 122°17'0 0.0
2017-Nov-19 09:20N 37°47' W 122°17'2 6.7
2017-Nov-19 09:01N 37°48' W 122°20'4 8.4
2017-Nov-19 08:30N 37°44' W 122°20'0 0.0
2017-Nov-19 08:00N 37°44' W 122°20'3 7.0
2017-Nov-19 07:30N 37°47' W 122°23'3 6.8
2017-Nov-19 07:00N 37°48' W 122°18'1 0.1
2017-Nov-18 23:56N 37°47' W 122°17'510.7
2017-Nov-18 23:30N 37°47' W 122°23'4 7.6
2017-Nov-18 23:00N 37°44' W 122°20'0 0.1
2017-Nov-18 22:31N 37°44' W 122°20'0 0.1
2017-Nov-18 22:00N 37°44' W 122°20'3 6.1
2017-Nov-18 21:31N 37°47' W 122°21'3 5.2
2017-Nov-18 21:00N 37°47' W 122°17'0 0.0
2017-Nov-18 20:30N 37°47' W 122°17'2 4.0
2017-Nov-18 20:01N 37°48' W 122°20'2 4.5
2017-Nov-18 19:30N 37°46' W 122°21'3 6.3
2017-Nov-18 19:00N 37°49' W 122°20'5 9.6
2017-Nov-18 18:30N 37°44' W 122°21'1 2.0
2017-Nov-18 18:00N 37°43' W 122°20'0 0.1
2017-Nov-18 17:31N 37°43' W 122°20'5 9.5
2017-Nov-18 17:00N 37°48' W 122°18'1 0.9
2017-Nov-18 16:09N 37°47' W 122°17'0 0.4
2017-Nov-18 16:00N 37°47' W 122°17'0 0.0
2017-Nov-17 22:02N 37°47' W 122°17'0 0.0
2017-Nov-17 22:00N 37°47' W 122°17'1 2.7
2017-Nov-17 21:31N 37°48' W 122°19'2 4.7
2017-Nov-17 21:01N 37°46' W 122°20'0 0.0
2017-Nov-17 20:31N 37°46' W 122°20'0 0.2
2017-Nov-17 20:00N 37°46' W 122°20'0 0.3
2017-Nov-17 19:30N 37°46' W 122°20'2 4.7
2017-Nov-17 19:00N 37°48' W 122°19'1 2.2
2017-Nov-17 18:30N 37°47' W 122°17'0 0.0
2017-Nov-17 18:00N 37°47' W 122°17'0 0.0
2017-Nov-17 16:59N 37°47' W 122°17'2 5.2
2017-Nov-17 16:30N 37°47' W 122°20'2 3.5
2017-Nov-17 16:00N 37°48' W 122°18'1 1.4
2017-Nov-17 15:30N 37°47' W 122°17'0 0.0
2017-Nov-16 14:40N 37°47' W 122°17'0 0.0
2017-Nov-16 14:30N 37°47' W 122°17'0 0.0
2017-Nov-16 07:28N 37°47' W 122°17'5 9.9
2017-Nov-16 07:01N 37°49' W 122°23'1 1.8
2017-Nov-16 06:30N 37°49' W 122°23'1 1.9
2017-Nov-16 06:00N 37°49' W 122°23'5 9.2
2017-Nov-16 05:30N 37°47' W 122°17'0 0.0
2017-Nov-16 05:01N 37°47' W 122°17'0 0.0
2017-Nov-16 01:25N 37°47' W 122°17'3 6.9
2017-Nov-16 01:00N 37°46' W 122°20'3 5.4
2017-Nov-16 00:30N 37°48' W 122°17'0 0.1
2017-Nov-15 22:30N 37°47' W 122°17'3 6.0
2017-Nov-15 22:01N 37°46' W 122°20'1 1.1
2017-Nov-15 21:30N 37°46' W 122°20'0 0.1
2017-Nov-15 21:01N 37°46' W 122°20'2 5.0
2017-Nov-15 20:31N 37°48' W 122°18'0 0.8
2017-Nov-15 20:00N 37°47' W 122°17'0 0.0
2017-Nov-15 19:31N 37°47' W 122°17'0 0.0
2017-Nov-15 02:02N 37°47' W 122°17'0 0.2
2017-Nov-15 02:00N 37°47' W 122°17'3 6.0
2017-Nov-15 01:30N 37°45' W 122°20'3 6.0
2017-Nov-15 01:01N 37°47' W 122°17'0 0.0
2017-Nov-14 22:33N 37°47' W 122°17'0 0.2
2017-Nov-14 22:31N 37°47' W 122°17'3 5.9
2017-Nov-14 22:00N 37°46' W 122°20'3 6.0
2017-Nov-14 21:30N 37°48' W 122°17'0 0.2
2017-Nov-14 20:58N 37°47' W 122°17'3 6.4
2017-Nov-14 20:31N 37°46' W 122°20'3 5.1
2017-Nov-14 20:00N 37°48' W 122°18'1 0.5
2017-Nov-14 18:56N 37°47' W 122°17'3 6.5
2017-Nov-14 18:31N 37°46' W 122°20'2 4.1
2017-Nov-14 18:00N 37°48' W 122°20'  

Dump ship's entire track history